createdAt,value
2019-02-05T00:01:28.694Z,99200.83
2019-02-05T00:03:57.810Z,99203.44
2019-02-05T00:06:26.608Z,99204.97
2019-02-05T00:08:55.452Z,99203.64
2019-02-05T00:11:24.084Z,99197.56
2019-02-05T00:13:52.760Z,99194.30
2019-02-05T00:16:21.470Z,99184.91
2019-02-05T00:18:51.676Z,99192.16
2019-02-05T00:21:20.972Z,99203.83
2019-02-05T00:23:49.623Z,99200.48
2019-02-05T00:26:18.266Z,99189.81
2019-02-05T00:28:46.923Z,99193.69
2019-02-05T00:31:15.641Z,99204.19
2019-02-05T00:33:44.316Z,99197.45
2019-02-05T00:36:13.311Z,99196.13
2019-02-05T00:38:41.967Z,99192.36
2019-02-05T00:41:10.855Z,99186.95
2019-02-05T00:43:39.531Z,99190.22
2019-02-05T00:46:08.175Z,99192.46
2019-02-05T00:48:36.817Z,99192.66
2019-02-05T00:51:06.027Z,99190.31
2019-02-05T00:53:34.723Z,99193.89
2019-02-05T00:56:03.370Z,99188.18
2019-02-05T00:58:32.114Z,99187.47
2019-02-05T01:01:00.757Z,99193.69
2019-02-05T01:03:29.732Z,99187.36
2019-02-05T01:05:58.459Z,99188.59
2019-02-05T01:08:27.102Z,99190.99
2019-02-05T01:10:55.738Z,99185.48
2019-02-05T01:13:24.386Z,99194.97
2019-02-05T01:15:53.330Z,99184.77
2019-02-05T01:18:21.970Z,99187.01
2019-02-05T01:20:50.658Z,99186.86
2019-02-05T01:23:19.294Z,99184.20
2019-02-05T01:25:49.080Z,99183.17
2019-02-05T01:28:17.728Z,99183.50
2019-02-05T01:30:46.444Z,99185.99
2019-02-05T01:33:15.163Z,99177.91
2019-02-05T01:35:44.604Z,99178.20
2019-02-05T01:38:13.235Z,99182.52
2019-02-05T01:40:41.883Z,99174.17
2019-02-05T01:43:10.536Z,99178.35
2019-02-05T01:45:39.171Z,99172.65
2019-02-05T01:48:07.859Z,99171.42
2019-02-05T01:50:36.515Z,99166.93
2019-02-05T01:53:05.615Z,99170.27
2019-02-05T01:55:34.331Z,99167.55
2019-02-05T01:58:02.991Z,99179.12
2019-02-05T02:00:32.975Z,99187.36
2019-02-05T02:03:01.791Z,99178.00
2019-02-05T02:05:30.461Z,99181.30
2019-02-05T02:07:59.477Z,99188.33
2019-02-05T02:10:28.945Z,99179.97
2019-02-05T02:12:57.851Z,99173.72
2019-02-05T02:15:26.490Z,99173.30
2019-02-05T02:17:55.146Z,99176.13
2019-02-05T02:20:23.984Z,99174.95
2019-02-05T02:22:53.109Z,99174.61
2019-02-05T02:25:21.829Z,99181.02
2019-02-05T02:27:50.810Z,99192.41
2019-02-05T02:30:30.021Z,99190.98
2019-02-05T02:32:58.838Z,99192.13
2019-02-05T02:35:27.564Z,99186.19
2019-02-05T02:37:56.474Z,99190.12
2019-02-05T02:40:25.125Z,99186.52
2019-02-05T02:42:53.828Z,99180.72
2019-02-05T02:45:22.479Z,99180.20
2019-02-05T02:47:52.186Z,99188.88
2019-02-05T02:50:20.926Z,99181.22
2019-02-05T02:52:51.651Z,99178.39
2019-02-05T02:55:20.378Z,99177.08
2019-02-05T02:57:49.094Z,99179.80
2019-02-05T03:00:18.366Z,99179.63
2019-02-05T03:02:47.091Z,99186.86
2019-02-05T03:05:16.515Z,99184.61
2019-02-05T03:07:45.535Z,99189.07
2019-02-05T03:10:15.566Z,99189.89
2019-02-05T03:12:44.486Z,99188.55
2019-02-05T03:15:13.236Z,99190.63
2019-02-05T03:17:41.891Z,99185.41
2019-02-05T03:20:10.784Z,99195.32
2019-02-05T03:22:39.511Z,99193.18
2019-02-05T03:25:08.666Z,99193.70
2019-02-05T03:27:37.386Z,99196.27
2019-02-05T03:30:06.736Z,99185.33
2019-02-05T03:32:35.593Z,99193.45
2019-02-05T03:35:06.261Z,99167.38
2019-02-05T03:37:35.076Z,99164.71
2019-02-05T03:40:04.652Z,99165.55
2019-02-05T03:42:33.861Z,99168.08
2019-02-05T03:45:02.579Z,99170.80
2019-02-05T03:47:31.612Z,99178.14
2019-02-05T03:50:00.358Z,99172.17
2019-02-05T03:52:35.597Z,99156.19
2019-02-05T03:55:26.119Z,99168.83
2019-02-05T03:57:58.671Z,99168.52
2019-02-05T04:00:34.410Z,99172.98
2019-02-05T04:03:17.468Z,99174.62
2019-02-05T04:06:05.667Z,99173.83
2019-02-05T04:08:45.560Z,99177.89
2019-02-05T04:11:48.827Z,99172.63
2019-02-05T04:14:35.735Z,99181.12
2019-02-05T04:17:26.535Z,99176.98
2019-02-05T04:20:20.653Z,99192.42
2019-02-05T04:23:05.815Z,99182.95
2019-02-05T04:25:40.734Z,99175.41
2019-02-05T04:28:37.510Z,99180.19
2019-02-05T04:31:40.966Z,99181.61
2019-02-05T04:34:29.861Z,99182.81
2019-02-05T04:37:33.283Z,99176.83
2019-02-05T04:40:17.495Z,99179.31
2019-02-05T04:43:20.900Z,99173.44
2019-02-05T04:46:02.293Z,99164.63
2019-02-05T04:48:38.333Z,99156.14
2019-02-05T04:51:13.486Z,99153.65
2019-02-05T04:53:49.315Z,99160.88
2019-02-05T04:56:23.138Z,99154.16
2019-02-05T04:59:14.080Z,99171.34
2019-02-05T05:02:17.459Z,99173.28
2019-02-05T05:04:52.259Z,99191.68
2019-02-05T05:07:46.540Z,99197.42
2019-02-05T05:10:15.184Z,99190.75
2019-02-05T05:12:43.890Z,99200.47
2019-02-05T05:15:12.532Z,99205.81
2019-02-05T05:17:41.244Z,99191.06
2019-02-05T05:20:11.106Z,99204.17
2019-02-05T05:22:40.402Z,99195.11
2019-02-05T05:25:10.394Z,99198.27
2019-02-05T05:27:39.130Z,99190.05
2019-02-05T05:30:10.125Z,99199.93
2019-02-05T05:32:38.776Z,99196.94
2019-02-05T05:35:10.187Z,99193.84
2019-02-05T05:37:38.835Z,99202.22
2019-02-05T05:40:08.954Z,99194.48
2019-02-05T05:42:37.613Z,99189.70
2019-02-05T05:45:07.084Z,99182.38
2019-02-05T05:47:35.938Z,99174.12
2019-02-05T05:50:05.263Z,99165.20
2019-02-05T05:52:33.933Z,99154.30
2019-02-05T05:55:02.704Z,99160.98
2019-02-05T05:57:31.548Z,99181.33
2019-02-05T06:00:00.503Z,99189.56
2019-02-05T06:02:29.295Z,99189.06
2019-02-05T06:04:59.076Z,99187.66
2019-02-05T06:07:27.713Z,99187.36
2019-02-05T06:09:56.359Z,99190.16
2019-02-05T06:12:25.011Z,99186.30
2019-02-05T06:14:53.655Z,99198.23
2019-02-05T06:17:22.422Z,99204.56
2019-02-05T06:19:51.439Z,99194.88
2019-02-05T06:22:20.074Z,99194.27
2019-02-05T06:24:48.803Z,99194.06
2019-02-05T06:27:17.460Z,99191.53
2019-02-05T06:29:46.581Z,99190.31
2019-02-05T06:32:15.296Z,99192.52
2019-02-05T06:34:44.046Z,99197.62
2019-02-05T06:37:12.821Z,99210.03
2019-02-05T06:39:41.470Z,99225.66
2019-02-05T06:42:10.142Z,99242.62
2019-02-05T06:44:38.914Z,99261.02
2019-02-05T06:47:07.948Z,99269.23
2019-02-05T06:49:36.726Z,99266.50
2019-02-05T06:52:05.362Z,99268.76
2019-02-05T06:54:34.399Z,99259.23
2019-02-05T06:57:03.143Z,99256.00
2019-02-05T06:59:31.789Z,99257.32
2019-02-05T07:02:00.423Z,99271.47
2019-02-05T07:04:29.714Z,99263.95
2019-02-05T07:06:58.381Z,99257.95
2019-02-05T07:09:27.029Z,99268.76
2019-02-05T07:11:55.739Z,99294.28
2019-02-05T07:14:24.389Z,99287.27
2019-02-05T07:16:53.051Z,99285.93
2019-02-05T07:19:21.701Z,99290.63
2019-02-05T07:21:50.727Z,99285.98
2019-02-05T07:24:19.725Z,99285.11
2019-02-05T07:26:48.431Z,99288.47
2019-02-05T07:29:17.067Z,99283.84
2019-02-05T07:31:45.719Z,99288.12
2019-02-05T07:34:14.435Z,99286.16
2019-02-05T07:36:43.075Z,99288.95
2019-02-05T07:39:11.995Z,99300.18
2019-02-05T07:41:40.886Z,99283.45
2019-02-05T07:44:09.533Z,99285.91
2019-02-05T07:46:39.017Z,99288.66
2019-02-05T07:49:07.655Z,99291.87
2019-02-05T07:51:37.381Z,99295.20
2019-02-05T07:54:06.194Z,99300.84
2019-02-05T07:56:35.296Z,99301.48
2019-02-05T07:59:10.258Z,99299.10
2019-02-05T08:01:35.576Z,99290.66
2019-02-05T08:04:04.535Z,99296.08
2019-02-05T08:06:33.265Z,99297.00
2019-02-05T08:09:01.914Z,99290.49
2019-02-05T08:11:32.509Z,99296.92
2019-02-05T08:14:01.443Z,99288.75
2019-02-05T08:16:30.168Z,99300.17
2019-02-05T08:18:58.804Z,99297.20
2019-02-05T08:21:27.471Z,99303.42
2019-02-05T08:23:56.115Z,99295.27
2019-02-05T08:26:25.203Z,99293.54
2019-02-05T08:28:53.861Z,99301.21
2019-02-05T08:31:22.507Z,99300.58
2019-02-05T08:33:51.528Z,99294.16
2019-02-05T08:36:20.249Z,99296.72
2019-02-05T08:38:48.975Z,99282.12
2019-02-05T08:41:17.615Z,99278.34
2019-02-05T08:43:46.283Z,99281.38
2019-02-05T08:46:14.932Z,99287.52
2019-02-05T08:48:43.658Z,99281.29
2019-02-05T08:51:12.763Z,99282.09
2019-02-05T08:53:41.568Z,99287.02
2019-02-05T08:56:10.282Z,99281.77
2019-02-05T08:58:39.291Z,99278.05
2019-02-05T09:01:08.012Z,99270.99
2019-02-05T09:03:36.928Z,99273.48
2019-02-05T09:06:05.654Z,99284.70
2019-02-05T09:08:34.734Z,99290.44
2019-02-05T09:11:03.740Z,99289.87
2019-02-05T09:13:32.395Z,99299.40
2019-02-05T09:16:01.039Z,99301.98
2019-02-05T09:18:29.748Z,99315.36
2019-02-05T09:20:58.415Z,99319.66
2019-02-05T09:23:27.141Z,99319.62
2019-02-05T09:25:56.327Z,99322.06
2019-02-05T09:28:25.075Z,99318.53
2019-02-05T09:30:54.041Z,99322.75
2019-02-05T09:33:23.279Z,99324.55
2019-02-05T09:35:52.424Z,99325.87
2019-02-05T09:38:21.061Z,99326.23
2019-02-05T09:40:49.699Z,99322.02
2019-02-05T09:43:18.732Z,99325.14
2019-02-05T09:46:06.611Z,99329.91
2019-02-05T09:48:35.260Z,99327.89
2019-02-05T09:51:03.971Z,99333.91
2019-02-05T09:53:32.616Z,99336.88
2019-02-05T09:56:01.735Z,99353.83
2019-02-05T09:58:30.451Z,99359.23
2019-02-05T10:00:59.739Z,99348.53
2019-02-05T10:03:28.596Z,99357.45
2019-02-05T10:05:57.240Z,99349.15
2019-02-05T10:08:25.882Z,99354.94
2019-02-05T10:10:54.532Z,99348.47
2019-02-05T10:13:23.455Z,99356.44
2019-02-05T10:15:52.228Z,99352.55
2019-02-05T10:18:20.956Z,99347.77
2019-02-05T10:20:49.676Z,99362.03
2019-02-05T10:23:18.666Z,99352.63
2019-02-05T10:25:47.324Z,99353.82
2019-02-05T10:28:15.969Z,99360.94
2019-02-05T10:30:45.427Z,99358.19
2019-02-05T10:33:14.092Z,99356.55
2019-02-05T10:35:42.903Z,99350.14
2019-02-05T10:38:11.631Z,99348.27
2019-02-05T10:40:40.291Z,99342.95
2019-02-05T10:43:09.100Z,99349.62
2019-02-05T10:45:37.812Z,99347.08
2019-02-05T10:48:07.799Z,99347.83
2019-02-05T10:50:36.529Z,99342.33
2019-02-05T10:53:05.238Z,99341.19
2019-02-05T10:55:35.418Z,99342.64
2019-02-05T10:58:04.482Z,99339.27
2019-02-05T11:00:33.150Z,99342.45
2019-02-05T11:03:02.368Z,99342.16
2019-02-05T11:05:31.448Z,99338.42
2019-02-05T11:08:00.257Z,99332.89
2019-02-05T11:10:29.074Z,99334.59
2019-02-05T11:12:57.856Z,99333.64
2019-02-05T11:15:27.648Z,99328.79
2019-02-05T11:17:56.464Z,99319.11
2019-02-05T11:20:26.239Z,99320.67
2019-02-05T11:22:54.966Z,99324.60
2019-02-05T11:25:23.617Z,99329.13
2019-02-05T11:27:52.358Z,99320.08
2019-02-05T11:30:25.195Z,99307.13
2019-02-05T11:32:53.939Z,99304.39
2019-02-05T11:35:22.598Z,99303.34
2019-02-05T11:37:51.629Z,99303.09
2019-02-05T11:40:25.027Z,99303.18
2019-02-05T11:42:53.829Z,99310.49
2019-02-05T11:45:22.931Z,99302.48
2019-02-05T11:47:51.889Z,99302.76
2019-02-05T11:50:20.705Z,99303.75
2019-02-05T11:52:49.811Z,99308.88
2019-02-05T11:55:19.443Z,99312.25
2019-02-05T11:57:48.155Z,99309.86
2019-02-05T12:00:32.285Z,99320.15
2019-02-05T12:02:53.490Z,99318.69
2019-02-05T12:05:22.151Z,99323.67
2019-02-05T12:07:50.809Z,99322.17
2019-02-05T12:10:19.756Z,99319.09
2019-02-05T12:12:48.430Z,99319.44
2019-02-05T12:15:17.240Z,99320.48
2019-02-05T12:17:45.966Z,99318.66
2019-02-05T12:20:14.717Z,99298.98
2019-02-05T12:22:43.512Z,99297.77
2019-02-05T12:25:13.273Z,99294.29
2019-02-05T12:27:42.346Z,99294.52
2019-02-05T12:30:13.580Z,99289.12
2019-02-05T12:32:42.668Z,99292.09
2019-02-05T12:35:13.489Z,99294.00
2019-02-05T12:37:42.232Z,99297.30
2019-02-05T12:40:11.517Z,99292.38
2019-02-05T12:42:40.442Z,99287.08
2019-02-05T12:45:10.617Z,99296.84
2019-02-05T12:47:39.352Z,99290.77
2019-02-05T12:50:10.459Z,99293.56
2019-02-05T12:52:39.407Z,99287.84
2019-02-05T12:55:13.381Z,99289.86
2019-02-05T12:57:38.735Z,99285.39
2019-02-05T13:00:11.415Z,99281.58
2019-02-05T13:02:40.091Z,99292.70
2019-02-05T13:05:08.833Z,99280.77
2019-02-05T13:07:37.493Z,99278.95
2019-02-05T13:10:07.087Z,99281.48
2019-02-05T13:12:36.291Z,99273.84
2019-02-05T13:15:05.504Z,99276.85
2019-02-05T13:17:34.178Z,99277.86
2019-02-05T13:20:03.098Z,99279.19
2019-02-05T13:22:31.908Z,99282.48
2019-02-05T13:25:00.558Z,99284.45
2019-02-05T13:27:29.589Z,99285.73
2019-02-05T13:29:58.281Z,99286.55
2019-02-05T13:32:27.008Z,99285.07
2019-02-05T13:34:56.794Z,99277.42
2019-02-05T13:37:25.520Z,99274.05
2019-02-05T13:39:54.179Z,99273.33
2019-02-05T13:42:23.203Z,99280.81
2019-02-05T13:44:52.568Z,99282.44
2019-02-05T13:47:21.219Z,99291.73
2019-02-05T13:49:49.906Z,99285.44
2019-02-05T13:52:19.547Z,99282.92
2019-02-05T13:54:48.281Z,99288.58
2019-02-05T13:57:18.032Z,99290.69
2019-02-05T13:59:46.733Z,99299.80
2019-02-05T14:02:15.379Z,99297.23
2019-02-05T14:04:44.037Z,99299.87
2019-02-05T14:07:12.691Z,99302.20
2019-02-05T14:09:41.317Z,99301.63
2019-02-05T14:12:10.049Z,99302.59
2019-02-05T14:14:39.151Z,99297.72
2019-02-05T14:17:07.873Z,99295.42
2019-02-05T14:19:36.540Z,99297.28
2019-02-05T14:22:05.288Z,99298.09
2019-02-05T14:24:34.720Z,99302.63
2019-02-05T14:27:03.510Z,99295.61
2019-02-05T14:29:32.258Z,99304.06
2019-02-05T14:32:01.006Z,99309.68
2019-02-05T14:34:29.680Z,99301.89
2019-02-05T14:36:58.389Z,99297.20
2019-02-05T14:39:27.115Z,99290.86
2019-02-05T14:41:55.799Z,99292.55
2019-02-05T14:44:24.455Z,99290.81
2019-02-05T14:46:53.396Z,99287.27
2019-02-05T14:49:22.067Z,99287.13
2019-02-05T14:51:50.880Z,99281.84
2019-02-05T14:54:19.543Z,99281.22
2019-02-05T14:56:48.218Z,99284.30
2019-02-05T14:59:16.856Z,99284.46
2019-02-05T15:01:45.991Z,99279.99
2019-02-05T15:04:14.727Z,99286.28
2019-02-05T15:06:43.375Z,99277.06
2019-02-05T15:09:12.096Z,99274.64
2019-02-05T15:11:40.833Z,99275.93
2019-02-05T15:14:09.504Z,99270.09
2019-02-05T15:16:38.692Z,99271.70
2019-02-05T15:19:07.353Z,99285.00
2019-02-05T15:21:36.395Z,99284.94
2019-02-05T15:24:05.048Z,99283.09
2019-02-05T15:26:34.004Z,99295.38
2019-02-05T15:29:02.675Z,99290.68
2019-02-05T15:31:31.324Z,99286.52
2019-02-05T15:34:03.751Z,99286.06
2019-02-05T15:36:37.531Z,99282.16
2019-02-05T15:39:15.722Z,99272.14
2019-02-05T15:41:44.385Z,99279.13
2019-02-05T15:44:13.771Z,99277.63
2019-02-05T15:46:42.439Z,99273.58
2019-02-05T15:49:11.095Z,99274.20
2019-02-05T15:51:39.929Z,99273.92
2019-02-05T15:54:09.060Z,99279.14
2019-02-05T15:56:37.787Z,99280.48
2019-02-05T15:59:06.931Z,99284.80
2019-02-05T16:01:35.606Z,99285.02
2019-02-05T16:04:04.541Z,99290.39
2019-02-05T16:06:33.223Z,99297.91
2019-02-05T16:09:01.893Z,99294.44
2019-02-05T16:11:32.167Z,99301.46
2019-02-05T16:14:00.823Z,99296.20
2019-02-05T16:16:29.578Z,99306.47
2019-02-05T16:18:58.245Z,99305.81
2019-02-05T16:21:26.937Z,99310.06
2019-02-05T16:23:58.197Z,99311.70
2019-02-05T16:26:25.964Z,99309.25
2019-02-05T16:28:54.612Z,99311.91
2019-02-05T16:31:23.676Z,99319.55
2019-02-05T16:33:52.772Z,99310.52
2019-02-05T16:36:21.496Z,99318.95
2019-02-05T16:38:50.206Z,99323.11
2019-02-05T16:41:18.844Z,99323.05
2019-02-05T16:43:47.586Z,99326.16
2019-02-05T16:46:16.621Z,99331.41
2019-02-05T16:48:45.268Z,99329.05
2019-02-05T16:51:13.995Z,99326.44
2019-02-05T16:53:42.667Z,99330.67
2019-02-05T16:56:11.339Z,99328.13
2019-02-05T16:58:40.080Z,99324.29
2019-02-05T17:01:08.752Z,99331.41
2019-02-05T17:03:37.671Z,99332.73
2019-02-05T17:06:06.332Z,99325.33
2019-02-05T17:08:37.103Z,99332.81
2019-02-05T17:11:05.816Z,99330.89
2019-02-05T17:13:34.465Z,99330.59
2019-02-05T17:16:03.222Z,99336.75
2019-02-05T17:18:32.235Z,99338.64
2019-02-05T17:21:00.972Z,99339.34
2019-02-05T17:23:29.734Z,99341.53
2019-02-05T17:25:59.365Z,99338.08
2019-02-05T17:28:29.022Z,99339.98
2019-02-05T17:30:57.692Z,99338.08
2019-02-05T17:33:26.712Z,99341.20
2019-02-05T17:35:55.392Z,99345.83
2019-02-05T17:38:25.611Z,99344.23
2019-02-05T17:40:54.849Z,99342.38
2019-02-05T17:43:23.574Z,99348.89
2019-02-05T17:45:52.294Z,99345.19
2019-02-05T17:48:21.586Z,99350.08
2019-02-05T17:50:50.227Z,99344.27
2019-02-05T17:53:18.907Z,99357.16
2019-02-05T17:55:47.639Z,99353.09
2019-02-05T17:58:16.885Z,99352.52
2019-02-05T18:00:54.771Z,99354.34
2019-02-05T18:03:24.238Z,99348.86
2019-02-05T18:05:52.877Z,99355.23
2019-02-05T18:08:21.619Z,99356.12
2019-02-05T18:10:50.271Z,99364.05
2019-02-05T18:13:18.979Z,99363.97
2019-02-05T18:15:47.633Z,99367.42
2019-02-05T18:18:16.642Z,99374.41
2019-02-05T18:20:45.291Z,99381.56
2019-02-05T18:23:14.026Z,99377.98
2019-02-05T18:25:42.674Z,99372.83
2019-02-05T18:28:11.390Z,99378.19
2019-02-05T18:30:40.439Z,99379.23
2019-02-05T18:33:09.171Z,99376.19
2019-02-05T18:35:38.166Z,99383.28
2019-02-05T18:38:07.753Z,99384.34
2019-02-05T18:40:36.448Z,99379.66
2019-02-05T18:43:05.198Z,99388.60
2019-02-05T18:45:33.855Z,99388.25
2019-02-05T18:48:02.506Z,99388.70
2019-02-05T18:50:31.216Z,99388.91
2019-02-05T18:52:59.883Z,99383.74
2019-02-05T18:55:28.897Z,99391.86
2019-02-05T18:58:08.465Z,99387.19
2019-02-05T19:00:29.326Z,99391.69
2019-02-05T19:02:58.428Z,99391.83
2019-02-05T19:05:27.648Z,99397.75
2019-02-05T19:07:56.759Z,99395.27
2019-02-05T19:10:26.009Z,99400.81
2019-02-05T19:12:54.715Z,99402.74
2019-02-05T19:15:24.319Z,99394.38
2019-02-05T19:17:52.979Z,99399.05
2019-02-05T19:20:22.995Z,99395.66
2019-02-05T19:22:51.739Z,99402.30
2019-02-05T19:25:43.715Z,99398.81
2019-02-05T19:28:18.466Z,99393.81
2019-02-05T19:30:47.419Z,99397.73
2019-02-05T19:33:26.662Z,99400.85
2019-02-05T19:35:46.744Z,99408.82
2019-02-05T19:38:15.465Z,99404.30
2019-02-05T19:40:44.146Z,99401.78
2019-02-05T19:43:13.966Z,99407.34
2019-02-05T19:46:00.874Z,99407.48
2019-02-05T19:48:40.949Z,99400.10
2019-02-05T19:51:09.566Z,99408.77
2019-02-05T19:53:38.214Z,99405.22
2019-02-05T19:56:07.477Z,99408.18
2019-02-05T19:58:36.796Z,99405.48
2019-02-05T20:01:05.522Z,99407.73
2019-02-05T20:03:38.973Z,99394.00
2019-02-05T20:06:05.159Z,99404.92
2019-02-05T20:08:33.842Z,99395.89
2019-02-05T20:11:02.579Z,99386.84
2019-02-05T20:13:39.926Z,99396.59
2019-02-05T20:16:01.832Z,99398.82
2019-02-05T20:18:30.552Z,99392.89
2019-02-05T20:20:59.281Z,99397.80
2019-02-05T20:23:28.051Z,99392.60
2019-02-05T20:25:56.707Z,99396.52
2019-02-05T20:28:25.471Z,99390.24
2019-02-05T20:30:54.583Z,99390.16
2019-02-05T20:33:23.484Z,99383.82
2019-02-05T20:35:52.125Z,99392.17
2019-02-05T20:38:20.809Z,99393.20
2019-02-05T20:40:49.443Z,99390.70
2019-02-05T20:43:19.037Z,99385.13
2019-02-05T20:45:48.136Z,99391.44
2019-02-05T20:48:17.214Z,99398.89
2019-02-05T20:50:45.959Z,99397.23
2019-02-05T20:53:14.616Z,99392.97
2019-02-05T20:55:43.613Z,99395.03
2019-02-05T20:58:12.609Z,99399.25
2019-02-05T21:00:41.260Z,99394.88
2019-02-05T21:03:09.970Z,99395.33
2019-02-05T21:05:38.986Z,99403.84
2019-02-05T21:08:07.740Z,99399.46
2019-02-05T21:10:36.415Z,99384.52
2019-02-05T21:13:05.231Z,99392.64
2019-02-05T21:15:33.900Z,99392.78
2019-02-05T21:18:02.611Z,99389.63
2019-02-05T21:20:33.975Z,99399.59
2019-02-05T21:23:02.208Z,99393.81
2019-02-05T21:25:32.492Z,99399.36
2019-02-05T21:28:01.443Z,99404.36
2019-02-05T21:30:30.144Z,99402.18
2019-02-05T21:32:59.895Z,99404.56
2019-02-05T21:35:29.883Z,99402.55
2019-02-05T21:37:58.915Z,99405.30
2019-02-05T21:40:27.566Z,99398.84
2019-02-05T21:42:56.371Z,99404.58
2019-02-05T21:45:25.581Z,99404.33
2019-02-05T21:47:54.355Z,99401.83
2019-02-05T21:50:23.178Z,99403.52
2019-02-05T21:52:51.918Z,99410.42
2019-02-05T21:55:21.238Z,99407.54
2019-02-05T21:57:50.244Z,99407.78
2019-02-05T22:00:20.111Z,99396.91
2019-02-05T22:02:49.104Z,99399.92
2019-02-05T22:05:17.792Z,99390.87
2019-02-05T22:07:46.484Z,99390.30
2019-02-05T22:10:15.254Z,99387.31
2019-02-05T22:12:44.199Z,99387.11
2019-02-05T22:15:13.130Z,99383.41
2019-02-05T22:17:42.108Z,99378.70
2019-02-05T22:20:12.324Z,99382.02
2019-02-05T22:22:41.148Z,99385.45
2019-02-05T22:25:12.135Z,99379.88
2019-02-05T22:27:40.922Z,99373.80
2019-02-05T22:30:13.559Z,99374.32
2019-02-05T22:32:42.571Z,99373.46
2019-02-05T22:35:13.413Z,99387.44
2019-02-05T22:37:42.537Z,99386.41
2019-02-05T22:40:11.287Z,99380.34
2019-02-05T22:42:39.927Z,99379.15
2019-02-05T22:45:09.439Z,99378.49
2019-02-05T22:47:38.460Z,99377.06
2019-02-05T22:50:09.351Z,99386.67
2019-02-05T22:52:38.051Z,99379.07
2019-02-05T22:55:07.243Z,99387.86
2019-02-05T22:57:35.905Z,99385.35
2019-02-05T23:00:08.235Z,99380.19
2019-02-05T23:02:39.109Z,99391.00
2019-02-05T23:05:25.066Z,99382.30
2019-02-05T23:07:54.780Z,99385.52
2019-02-05T23:11:02.854Z,99383.22
2019-02-05T23:13:22.420Z,99380.27
2019-02-05T23:15:52.158Z,99381.89
2019-02-05T23:18:21.023Z,99376.34
2019-02-05T23:20:49.783Z,99377.67
2019-02-05T23:23:18.440Z,99374.02
2019-02-05T23:25:47.094Z,99378.39
2019-02-05T23:28:15.752Z,99380.97
2019-02-05T23:30:44.585Z,99383.15
2019-02-05T23:33:13.488Z,99381.86
2019-02-05T23:35:42.130Z,99383.94
2019-02-05T23:38:10.773Z,99382.77
2019-02-05T23:40:39.423Z,99382.97
2019-02-05T23:43:08.075Z,99376.39
2019-02-05T23:45:37.107Z,99383.84
2019-02-05T23:48:06.121Z,99383.42
2019-02-05T23:50:35.749Z,99379.72
2019-02-05T23:53:04.551Z,99381.73
2019-02-05T23:55:33.535Z,99384.86
2019-02-05T23:58:02.179Z,99379.45
